Gainesville, GA

8:12 PM EDT on March 29, 2015 (GMT -0400)
Lanier Woods North | | Change Station
CLOSE
Current Station
Personal Weather Station
Location: Gainesville, GA
Elevation: 1171 ft
Nearby Weather Stations

Elev 1171 ft 34.37 °N, 83.86 °W | Updated 4 seconds ago

Clear
Clear
54.1 °F
Feels Like 54.1 °F
N
0.0
Wind Variable Wind from SW
Gusts 0.0 mph

Today
High -- | Low -- °F
--% Chance of Precip.
Yesterday
High -- | Low -- °F
Precip. -- in
7:27 AM 7:53 PM
Waxing Gibbous, 75% visible
Pressure 30.26 in
Visibility 10.0 miles
Clouds Overcast 5000 ft
Dew Point 30 °F
Humidity 39%
Rainfall 0.00 in
Snow Depth Not available.
UV 0.0 out of 12
Pollen 8.70 out of 12
Air Quality Not available.
Flu Activity Not available.
METAR KGVL 292353Z AUTO 18003KT 10SM OVC050 13/M08 A3025 RMK AO2 SLP245 T01281078 10144 20100 55010

More Conditions Fewer Conditions

Pressure 30.26 in
Visibility 10.0 miles
Clouds Overcast 5000 ft
Dew Point 30 °F
Humidity 39%
Rainfall 0.00 in
Snow Depth Not available.
UV 0.0 out of 12
Pollen 8.70 out of 12
Air Quality Not available.
Flu Activity Not available.
METAR KGVL 292353Z AUTO 18003KT 10SM OVC050 13/M08 A3025 RMK AO2 SLP245 T01281078 10144 20100 55010

More Conditions Fewer Conditions

10-Day Weather Forecast

Almanac

Astronomy

Mar. 29, 2015 Rise Set
Actual Time
Civil Twilight
Nautical Twilight
Astronomical Twilight
Moon
Length of Visible Light
Length of Day
Tomorrow will be .
, % of the Moon is Illuminated

Today's Extremes

State Highs State Lows

Community

WunderPhotos

Upload Photos

1,809,386 photos uploaded!

WunderBlogs® & News

Nearby

Air Quality

  Air Quality AQ Index Pollutant
Not available.

Snow Depth

Station Depth Elevation

Earthquake Activity

City Distance Mag. Time & Date
Minimum magnitude displayed is 2.5.

Coastal Water Temperatures

Place Temperature

Stations

Nearby Weather Stations

Station Location Temp. Windchill Dew Point Humidity Wind Precip. Elev Updated Type